KHSD

Details ICAO KHSD
Name SUNDANCE AIRPARK
Region United States
Timezone America/Chicago (UTC-6.0)
Plans Departing 15
Arriving 1
Stats Elevation 1,193 ft / 364 m (AMSL)
Location 35.601832° -97.706153°
Runways 1
Magnetic Variation 3.839° E
Sunrise 2017-12-18 13:36:26 UTC / 2017-12-18 07:36:26 Local
Sunset 2017-12-18 23:21:24 UTC / 2017-12-18 17:21:24 Local
Advertisement - Login to hide

Runways

ID Width Length Bearing (true) Bearing (mag) Surface Threshold Offset Overrun Length
17 98 ft / 30 m 5,013 ft / 1,528 m 177.99° 174.15° Concrete 0 ft / 0 m 0 ft / 0 m
35 98 ft / 30 m 5,013 ft / 1,528 m 357.99° 354.15° Concrete 0 ft / 0 m 0 ft / 0 m

Approach Navaids

Runway Type Ident Frequency Range Bearing (true) Bearing (mag) Slope Elevation
17 Localiser IHSD 109.90 MHz 18 nm / 33 km 177.99° 174.15° - 1,193 ft / 364 m (AMSL)

Map

Weather


0- 5 10 15 20 25 30 35+ Temperature / ° C

Clouds and Precipitation
Forecast for 2017-12-19 00:00 UTC. Updated an hour ago

Ground ~20,000 ft ~40,000 ft Winds

METAR

KHSD 182215Z AUTO 17008KT 10SM CLR 12/07 A3006 RMK A01

TAF

Not found

Frequencies

Unicom 122.70 MHz CTAF/UNICOM
Approach 124.60 MHz OKE CITY APP/DEP
Clearance 123.70 MHz CLNC DEL
Warning: Do not use this data for real-world aviation or navigation. No guarantee of current accuracy is given.